CJU3 weather

Macdonald Airport
Macdonald, Manitoba, Canada

Public forecast

Using degrees Celsius for public forecast. Weather courtesy of forecast.io.

Closest aviation weather report (METAR) to Macdonald Airport

Closest report is Southport Airport, 14.5 nm (26.9 km) SE. Retrieved 2019/12/05 19:00 UTC (14 minutes ago):

CYPG 051900Z 34016G21KT 6SM -SN FEW018 OVC029 M08/M11 A3010 RMK SC2SC6 SLP211

Closest aviation forecast (TAF) to Macdonald Airport

Closest forecast is Southport Airport, 14.5 nm (26.9 km) SE. Retrieved 2019/12/05 18:33 UTC (41 minutes ago):

TAF TAF CYPG 051730Z 0518/0606 33015G25KT P6SM SCT012 OVC030 TEMPO 0518/0519 5SM -SN BKN012 OVC030 FM051900 33012G22KT P6SM FEW012 OVC030 TEMPO 0519/0522 BKN012 OVC030 FM052200 33012G22KT P6SM BKN025 TEMPO 0522/0606 BKN020 BECMG 0523/0601 30005KT RMK NXT FCST BY 060000Z